Time;durP1;ratioP1;P1;durP2;ratioP2;P2;SDS_P1;SDS_P2;PMS_P1;PMS_P2;Temp;Humidity;BMP_temperature;BMP_pressure;BME280_temperature;BME280_humidity;BME280_pressure;Samples;Min_cycle;Max_cycle;Signal;HPM_P1;HPM_P2
2022/06/10 15:31:19;;;;;;;;;;;32.80;20.10;;;;;;6106225;22;2098535;-81
2022/06/10 15:33:46;;;;;;;;;;;32.50;20.40;;;;;;6183574;23;19948;-83
2022/06/10 15:42:01;;;;;;;;;;;32.50;21.60;;;;;;6184397;23;19950;-78
2022/06/10 15:44:29;;;;;;;;;;;32.70;21.40;;;;;;6183870;23;19939;-78
2022/06/10 15:46:58;;;;;;;;;;;33.00;21.40;;;;;;6184752;23;19924;-78
2022/06/10 15:49:25;;;;;;;;;;;33.20;21.30;;;;;;6186082;23;19924;-84
2022/06/10 15:51:59;;;;;;;;;;;33.40;21.60;;;;;;6184456;23;19924;-80
2022/06/10 15:54:29;;;;;;;;;;;33.50;21.80;;;;;;6184528;23;19931;-80
2022/06/10 15:57:09;;;;;;;;;;;33.30;19.60;;;;;;6184347;23;20356;-78
2022/06/10 15:59:41;;;;;;;;;;;33.20;20.80;;;;;;6184270;23;19931;-78
2022/06/10 16:02:19;;;;;;;;;;;33.10;20.70;;;;;;6183665;23;20304;-84
2022/06/10 16:04:49;;;;;;;;;;;32.90;20.60;;;;;;6183230;23;20304;-83
2022/06/10 16:07:20;;;;;;;;;;;32.80;21.30;;;;;;6181948;23;19936;-78
2022/06/10 16:09:47;;;;;;;;;;;32.60;20.60;;;;;;6183744;23;19931;-83
2022/06/10 16:15:04;;;;;;;;;;;32.60;20.90;;;;;;6185787;23;19928;-77
2022/06/10 16:17:31;;;;;;;;;;;32.40;22.00;;;;;;6182440;23;19978;-77
2022/06/10 16:19:57;;;;;;;;;;;32.50;21.40;;;;;;6184537;23;19920;-84
2022/06/10 16:22:24;;;;;;;;;;;32.50;22.30;;;;;;6184852;23;19924;-82
2022/06/10 16:24:52;;;;;;;;;;;32.60;22.20;;;;;;6185706;23;19927;-80
2022/06/10 16:27:20;;;;;;;;;;;32.80;22.10;;;;;;6184311;23;20400;-84
2022/06/10 16:29:51;;;;;;;;;;;32.90;22.60;;;;;;6180287;23;20333;-80
2022/06/10 16:32:18;;;;;;;;;;;32.90;22.00;;;;;;6183467;23;19927;-79
2022/06/10 16:34:45;;;;;;;;;;;32.90;22.30;;;;;;6183581;23;20304;-79
2022/06/10 16:37:12;;;;;;;;;;;32.90;22.40;;;;;;6183980;23;19921;-78
2022/06/10 16:39:39;;;;;;;;;;;33.10;21.80;;;;;;6184264;23;19986;-83
2022/06/10 16:42:12;;;;;;;;;;;32.90;21.50;;;;;;6184060;23;19943;-78
2022/06/10 16:44:40;;;;;;;;;;;32.80;21.20;;;;;;6183934;23;19921;-83
2022/06/10 16:47:10;;;;;;;;;;;32.80;20.70;;;;;;6183724;23;20342;-84
2022/06/10 16:49:37;;;;;;;;;;;32.60;21.00;;;;;;6185122;23;20300;-78
2022/06/10 16:52:05;;;;;;;;;;;32.70;21.40;;;;;;6184035;23;19927;-82
2022/06/10 16:54:32;;;;;;;;;;;32.70;21.90;;;;;;6185219;23;19928;-83
2022/06/10 16:57:01;;;;;;;;;;;32.60;22.30;;;;;;6184227;23;20430;-78
2022/06/10 16:59:34;;;;;;;;;;;32.60;21.90;;;;;;6183706;23;19971;-78
2022/06/10 17:02:21;;;;;;;;;;;32.60;22.00;;;;;;6182356;23;19944;-83
2022/06/10 17:04:48;;;;;;;;;;;32.80;22.80;;;;;;6183583;23;19924;-81
2022/06/10 17:07:19;;;;;;;;;;;32.80;21.90;;;;;;6183495;23;19931;-84
2022/06/10 17:09:46;;;;;;;;;;;32.90;22.20;;;;;;6183201;23;19931;-78
2022/06/10 17:12:23;;;;;;;;;;;32.90;21.40;;;;;;6185847;23;19920;-81
2022/06/10 17:15:13;;;;;;;;;;;32.60;21.20;;;;;;6184417;23;19943;-78
2022/06/10 17:17:40;;;;;;;;;;;32.40;21.90;;;;;;6170294;23;20349;-79
2022/06/10 17:20:07;;;;;;;;;;;32.00;21.80;;;;;;6185710;23;20253;-81
2022/06/10 17:22:34;;;;;;;;;;;31.80;23.10;;;;;;6186394;23;20364;-77
2022/06/10 17:25:00;;;;;;;;;;;31.70;23.40;;;;;;6188022;23;19924;-80
2022/06/10 17:27:31;;;;;;;;;;;31.50;23.00;;;;;;6186461;23;19932;-80
2022/06/10 17:29:59;;;;;;;;;;;31.30;23.80;;;;;;6185262;23;19948;-78
2022/06/10 17:32:27;;;;;;;;;;;31.10;24.80;;;;;;6185045;23;20400;-78
2022/06/10 17:34:55;;;;;;;;;;;31.00;24.40;;;;;;6184190;23;19943;-78
2022/06/10 17:37:24;;;;;;;;;;;30.90;24.40;;;;;;6185063;23;19974;-83
2022/06/10 17:39:51;;;;;;;;;;;30.80;24.40;;;;;;6185163;23;19920;-82
2022/06/10 17:42:19;;;;;;;;;;;30.70;24.70;;;;;;6185505;23;19928;-80
2022/06/10 17:44:46;;;;;;;;;;;30.70;24.60;;;;;;6185337;23;19994;-78
2022/06/10 17:47:15;;;;;;;;;;;30.60;27.30;;;;;;6185525;23;20007;-83
2022/06/10 17:49:44;;;;;;;;;;;30.60;29.30;;;;;;6185611;23;20269;-83
2022/06/10 17:52:13;;;;;;;;;;;30.60;29.80;;;;;;6184997;23;19921;-83
2022/06/10 17:54:41;;;;;;;;;;;30.60;30.40;;;;;;6185132;23;19928;-78
2022/06/10 17:57:26;;;;;;;;;;;30.60;30.70;;;;;;6186408;23;19974;-80
2022/06/10 17:59:55;;;;;;;;;;;30.40;31.20;;;;;;6185086;23;19971;-82
2022/06/10 18:02:32;;;;;;;;;;;30.40;31.30;;;;;;6184949;23;19936;-77
2022/06/10 18:05:00;;;;;;;;;;;30.30;30.80;;;;;;6184722;23;19920;-78
2022/06/10 18:07:27;;;;;;;;;;;30.20;30.20;;;;;;6185377;23;19927;-83
2022/06/10 18:09:54;;;;;;;;;;;30.00;30.10;;;;;;6186493;23;19920;-78
2022/06/10 18:12:26;;;;;;;;;;;29.80;30.20;;;;;;6186877;23;19920;-80
2022/06/10 18:14:54;;;;;;;;;;;29.60;30.70;;;;;;6184345;23;19971;-78
2022/06/10 18:17:29;;;;;;;;;;;29.40;31.80;;;;;;6183316;23;19924;-78
2022/06/10 18:20:26;;;;;;;;;;;29.10;32.40;;;;;;6184647;23;19920;-78
2022/06/10 18:22:53;;;;;;;;;;;28.90;33.00;;;;;;6184924;23;20313;-77
2022/06/10 18:25:23;;;;;;;;;;;28.60;33.80;;;;;;6184201;23;19925;-82
2022/06/10 18:27:51;;;;;;;;;;;28.40;35.10;;;;;;6182848;23;19925;-81
2022/06/10 18:30:20;;;;;;;;;;;28.20;36.10;;;;;;6183639;23;19995;-83
2022/06/10 18:32:49;;;;;;;;;;;27.90;36.70;;;;;;6182973;23;19955;-78
2022/06/10 18:35:16;;;;;;;;;;;27.70;37.00;;;;;;6183111;23;20301;-78
2022/06/10 18:38:03;;;;;;;;;;;27.50;37.20;;;;;;6181237;23;20488;-77
2022/06/10 18:40:32;;;;;;;;;;;27.40;37.40;;;;;;6182582;23;19978;-78
2022/06/10 18:43:00;;;;;;;;;;;27.10;37.30;;;;;;6182267;23;19924;-80
2022/06/10 18:45:30;;;;;;;;;;;27.00;37.40;;;;;;6157553;23;19930;-77
2022/06/10 18:48:05;;;;;;;;;;;26.80;37.50;;;;;;6184596;23;19924;-78
2022/06/10 18:50:34;;;;;;;;;;;26.70;36.90;;;;;;6183879;23;19975;-78
2022/06/10 18:53:07;;;;;;;;;;;26.50;36.70;;;;;;6185098;23;19920;-80
2022/06/10 18:55:35;;;;;;;;;;;26.40;37.10;;;;;;6186577;23;19979;-78
2022/06/10 18:58:03;;;;;;;;;;;26.20;37.30;;;;;;6183724;23;20399;-78
2022/06/10 19:00:32;;;;;;;;;;;26.10;38.40;;;;;;6183413;23;20308;-77
2022/06/10 19:02:59;;;;;;;;;;;25.90;38.60;;;;;;6188866;23;19928;-78
2022/06/10 19:05:28;;;;;;;;;;;25.70;38.60;;;;;;6189498;23;19919;-81
2022/06/10 19:07:55;;;;;;;;;;;25.50;38.80;;;;;;6188578;23;19923;-83
2022/06/10 19:10:27;;;;;;;;;;;25.30;39.80;;;;;;6189657;23;20296;-82
2022/06/10 19:12:54;;;;;;;;;;;25.10;40.30;;;;;;6189887;23;19971;-78
2022/06/10 19:15:22;;;;;;;;;;;24.80;41.30;;;;;;6189665;23;19919;-81
2022/06/10 19:17:52;;;;;;;;;;;24.60;42.10;;;;;;6189920;23;19928;-77
2022/06/10 19:20:26;;;;;;;;;;;24.40;42.80;;;;;;6190028;23;19943;-80
2022/06/10 19:22:56;;;;;;;;;;;24.30;42.20;;;;;;6190005;23;19920;-80
2022/06/10 19:25:28;;;;;;;;;;;24.20;42.50;;;;;;6189595;23;20288;-80
2022/06/10 19:27:55;;;;;;;;;;;24.20;43.00;;;;;;6189285;23;19923;-78
2022/06/10 19:30:23;;;;;;;;;;;24.10;43.90;;;;;;6190004;23;19920;-78
2022/06/10 19:32:52;;;;;;;;;;;24.00;46.20;;;;;;6189995;23;19994;-78
2022/06/10 19:35:24;;;;;;;;;;;24.00;49.10;;;;;;6188914;23;19920;-77
2022/06/10 19:37:51;;;;;;;;;;;23.80;50.00;;;;;;6188905;23;20234;-81
2022/06/10 19:40:22;;;;;;;;;;;23.70;49.80;;;;;;6189443;23;19999;-80
2022/06/10 19:42:50;;;;;;;;;;;23.50;49.40;;;;;;6165357;23;20336;-80
2022/06/10 19:45:19;;;;;;;;;;;23.40;49.00;;;;;;6189682;23;20233;-78
2022/06/10 19:47:48;;;;;;;;;;;23.30;48.90;;;;;;6188776;23;20292;-80
2022/06/10 19:50:22;;;;;;;;;;;23.10;49.10;;;;;;6189334;23;19920;-78
2022/06/10 19:52:52;;;;;;;;;;;23.00;49.40;;;;;;6190263;23;19920;-78
2022/06/10 19:55:22;;;;;;;;;;;22.80;49.90;;;;;;6189782;23;19920;-84
2022/06/10 19:57:49;;;;;;;;;;;22.70;50.40;;;;;;6189747;23;19927;-82
2022/06/10 20:00:17;;;;;;;;;;;22.60;51.30;;;;;;6188899;23;20266;-84
2022/06/10 20:02:46;;;;;;;;;;;22.40;51.80;;;;;;6189504;23;20300;-81
2022/06/10 20:05:17;;;;;;;;;;;22.30;52.20;;;;;;6188731;23;20238;-79
2022/06/10 20:07:46;;;;;;;;;;;22.20;52.50;;;;;;6165962;23;20300;-82
2022/06/10 20:10:26;;;;;;;;;;;22.10;53.90;;;;;;6189242;23;19920;-78
2022/06/10 20:12:53;;;;;;;;;;;22.00;52.50;;;;;;6189638;23;20402;-78
2022/06/10 20:15:20;;;;;;;;;;;21.90;52.40;;;;;;6187282;23;20305;-81
2022/06/10 20:17:48;;;;;;;;;;;21.90;52.30;;;;;;6189689;23;20274;-77
2022/06/10 20:20:18;;;;;;;;;;;21.80;52.90;;;;;;6191834;23;19943;-81
2022/06/10 20:22:45;;;;;;;;;;;21.70;52.20;;;;;;6189813;23;19924;-81
2022/06/10 20:25:19;;;;;;;;;;;21.70;51.30;;;;;;6190244;23;19931;-79
2022/06/10 20:27:46;;;;;;;;;;;21.60;50.30;;;;;;6190895;23;19927;-83
2022/06/10 20:30:15;;;;;;;;;;;21.60;49.20;;;;;;6189582;23;19947;-78
2022/06/10 20:32:43;;;;;;;;;;;21.50;49.10;;;;;;6190098;23;19920;-82
2022/06/10 20:35:17;;;;;;;;;;;21.50;49.50;;;;;;6189758;23;20396;-78
2022/06/10 20:37:44;;;;;;;;;;;21.40;49.50;;;;;;6191448;23;19943;-78
2022/06/10 20:40:17;;;;;;;;;;;21.30;49.60;;;;;;6193903;23;20229;-82
2022/06/10 20:42:43;;;;;;;;;;;21.20;50.00;;;;;;6188961;23;19920;-81
2022/06/10 20:45:13;;;;;;;;;;;21.10;49.50;;;;;;6189867;23;19924;-78
2022/06/10 20:47:41;;;;;;;;;;;21.10;49.10;;;;;;6195164;23;19930;-81
2022/06/10 20:50:23;;;;;;;;;;;21.00;48.20;;;;;;6194388;23;19924;-78
2022/06/10 20:52:51;;;;;;;;;;;21.00;48.00;;;;;;6220944;23;19974;-81
2022/06/10 20:55:32;;;;;;;;;;;21.00;48.60;;;;;;6189951;23;19920;-82
2022/06/10 20:58:00;;;;;;;;;;;21.00;46.00;;;;;;6192654;23;19920;-78
2022/06/10 21:00:27;;;;;;;;;;;21.00;45.40;;;;;;6216186;23;19923;-78
2022/06/10 21:02:59;;;;;;;;;;;21.00;44.40;;;;;;6191276;23;19982;-78
2022/06/10 21:08:14;;;;;;;;;;;21.10;43.60;;;;;;6217671;23;19927;-84
2022/06/10 21:10:42;;;;;;;;;;;21.20;43.60;;;;;;6219053;23;19920;-82
2022/06/10 21:13:10;;;;;;;;;;;21.20;43.40;;;;;;6194039;23;19924;-78
2022/06/10 21:15:39;;;;;;;;;;;21.20;43.60;;;;;;6195080;23;20257;-78
2022/06/10 21:18:16;;;;;;;;;;;21.20;43.10;;;;;;6190780;23;20031;-77
2022/06/10 21:20:50;;;;;;;;;;;21.20;42.90;;;;;;6192520;23;20384;-79
2022/06/10 21:23:18;;;;;;;;;;;21.20;43.10;;;;;;6190637;23;19946;-78
2022/06/10 21:25:45;;;;;;;;;;;21.20;43.20;;;;;;6194232;23;19924;-81
2022/06/10 21:28:14;;;;;;;;;;;21.20;43.20;;;;;;6190161;23;19923;-80
2022/06/10 21:30:48;;;;;;;;;;;21.10;43.10;;;;;;6194840;23;19920;-81
2022/06/10 21:33:17;;;;;;;;;;;21.10;43.40;;;;;;6192220;23;19924;-78
2022/06/10 21:35:44;;;;;;;;;;;21.10;44.00;;;;;;6190505;23;20368;-79
2022/06/10 21:38:14;;;;;;;;;;;21.10;44.40;;;;;;6190303;23;20227;-81
2022/06/10 21:40:43;;;;;;;;;;;21.00;44.40;;;;;;6190091;23;20329;-81
2022/06/10 21:45:56;;;;;;;;;;;20.90;44.70;;;;;;6215395;23;19924;-78
2022/06/10 21:48:30;;;;;;;;;;;20.80;45.30;;;;;;6189617;23;20098;-82
2022/06/10 21:50:58;;;;;;;;;;;20.80;45.50;;;;;;6190239;23;20361;-80
2022/06/10 21:53:27;;;;;;;;;;;20.70;45.40;;;;;;6190349;23;19923;-81
2022/06/10 21:55:55;;;;;;;;;;;20.60;45.40;;;;;;6188774;23;20333;-81
2022/06/10 21:58:24;;;;;;;;;;;20.60;45.40;;;;;;6189416;23;19966;-81
2022/06/10 22:00:57;;;;;;;;;;;20.50;45.20;;;;;;6189749;23;19924;-80
2022/06/10 22:03:46;;;;;;;;;;;20.50;44.30;;;;;;6194159;23;19920;-78
2022/06/10 22:06:15;;;;;;;;;;;20.50;43.70;;;;;;6189144;23;19942;-81
2022/06/10 22:08:42;;;;;;;;;;;20.60;43.70;;;;;;6190066;23;19986;-78
2022/06/10 22:11:11;;;;;;;;;;;20.50;43.70;;;;;;6217296;23;20300;-84
2022/06/10 22:13:38;;;;;;;;;;;20.60;43.40;;;;;;6165949;23;19974;-80
2022/06/10 22:16:06;;;;;;;;;;;20.60;43.40;;;;;;6190256;23;20304;-81
2022/06/10 22:18:34;;;;;;;;;;;20.60;43.30;;;;;;6190218;23;20297;-83
2022/06/10 22:21:01;;;;;;;;;;;20.60;43.50;;;;;;6189654;23;19924;-80
2022/06/10 22:23:29;;;;;;;;;;;20.60;43.40;;;;;;6190193;23;19927;-78
2022/06/10 22:25:56;;;;;;;;;;;20.60;43.40;;;;;;6190515;23;19920;-79
2022/06/10 22:28:24;;;;;;;;;;;20.60;43.70;;;;;;6190551;23;19943;-78
2022/06/10 22:30:52;;;;;;;;;;;20.60;43.30;;;;;;6190029;23;19920;-78
2022/06/10 22:33:42;;;;;;;;;;;20.60;42.50;;;;;;6192882;23;19920;-80
2022/06/10 22:36:09;;;;;;;;;;;20.60;42.40;;;;;;6190550;23;19928;-79
2022/06/10 22:38:40;;;;;;;;;;;20.60;42.60;;;;;;6190127;23;19928;-80
2022/06/10 22:41:29;;;;;;;;;;;20.60;43.10;;;;;;6195473;23;20364;-80
2022/06/10 22:43:56;;;;;;;;;;;20.60;44.10;;;;;;6190064;23;19975;-79
2022/06/10 22:46:31;;;;;;;;;;;20.50;44.50;;;;;;6184916;23;19920;-78
2022/06/10 22:48:59;;;;;;;;;;;20.50;44.20;;;;;;6184798;23;19920;-78
2022/06/10 22:51:30;;;;;;;;;;;20.40;44.00;;;;;;6184576;23;20257;-78
2022/06/10 22:53:58;;;;;;;;;;;20.40;44.10;;;;;;6184592;23;20337;-78
2022/06/10 22:56:26;;;;;;;;;;;20.40;44.40;;;;;;6184764;23;19920;-81
2022/06/10 22:58:53;;;;;;;;;;;20.30;44.10;;;;;;6186217;23;19925;-84
2022/06/10 23:01:22;;;;;;;;;;;20.30;43.80;;;;;;6185321;23;19979;-78
2022/06/10 23:03:58;;;;;;;;;;;20.30;43.30;;;;;;6184231;23;19924;-78
2022/06/10 23:06:28;;;;;;;;;;;20.30;43.40;;;;;;6185696;23;19924;-83
2022/06/10 23:12:15;;;;;;;;;;;20.40;42.70;;;;;;6186782;23;19924;-78
2022/06/10 23:14:42;;;;;;;;;;;20.40;42.30;;;;;;6185456;23;19920;-79
2022/06/10 23:17:11;;;;;;;;;;;20.50;41.90;;;;;;6187845;23;19932;-80
2022/06/10 23:19:42;;;;;;;;;;;20.60;41.80;;;;;;6185712;23;19943;-78
2022/06/10 23:22:33;;;;;;;;;;;20.70;41.20;;;;;;6184334;23;19927;-85
2022/06/10 23:25:00;;;;;;;;;;;20.70;41.00;;;;;;6169751;23;19932;-79
2022/06/10 23:27:28;;;;;;;;;;;20.80;40.90;;;;;;6184642;23;19920;-80
2022/06/10 23:29:55;;;;;;;;;;;20.80;40.70;;;;;;6184960;23;19951;-78
2022/06/10 23:32:26;;;;;;;;;;;20.80;40.90;;;;;;6184839;23;19970;-80
2022/06/10 23:34:54;;;;;;;;;;;20.90;41.10;;;;;;6185404;23;20333;-80
2022/06/10 23:37:23;;;;;;;;;;;20.80;41.10;;;;;;6185053;23;19920;-79
2022/06/10 23:39:50;;;;;;;;;;;20.80;40.90;;;;;;6185480;23;19943;-81
2022/06/10 23:42:26;;;;;;;;;;;20.80;40.80;;;;;;6185203;23;19920;-84
2022/06/10 23:44:52;;;;;;;;;;;20.90;40.90;;;;;;6184605;23;19971;-78
2022/06/10 23:50:29;;;;;;;;;;;20.80;41.00;;;;;;6185459;23;19924;-81
2022/06/10 23:52:59;;;;;;;;;;;20.80;41.20;;;;;;6184598;23;19924;-79
2022/06/10 23:58:18;;;;;;;;;;;20.70;41.00;;;;;;6183309;23;19994;-81
